Time;durP1;ratioP1;P1;durP2;ratioP2;P2;SDS_P1;SDS_P2;PMS_P1;PMS_P2;Temp;Humidity;BMP_temperature;BMP_pressure;BME280_temperature;BME280_humidity;BME280_pressure;Samples;Min_cycle;Max_cycle;Signal;HPM_P1;HPM_P2
2023/07/09 00:00:01;;;;;;;4.45;2.80;;;;;;;22.73;nan;61987.94;5033856;28;20552;-59
2023/07/09 00:02:27;;;;;;;4.85;3.42;;;;;;;22.40;nan;61909.28;5032784;28;20227;-59
2023/07/09 00:04:52;;;;;;;5.00;3.67;;;;;;;22.63;nan;62013.00;5033370;28;20306;-60
2023/07/09 00:07:29;;;;;;;5.20;3.40;;;;;;;22.29;nan;62042.00;5033438;28;20266;-61
2023/07/09 00:09:55;;;;;;;4.32;2.92;;;;;;;22.52;nan;61940.03;5033282;28;20728;-62
2023/07/09 00:12:21;;;;;;;5.53;3.15;;;;;;;22.55;nan;61964.84;5033347;28;20186;-59
2023/07/09 00:14:46;;;;;;;4.05;3.08;;;;;;;22.34;nan;62034.66;5033334;28;20168;-61
2023/07/09 00:17:21;;;;;;;5.43;3.03;;;;;;;22.27;nan;61962.19;5035382;28;20174;-59
2023/07/09 00:19:47;;;;;;;4.15;2.97;;;;;;;18.99;nan;61606.63;5035240;28;20182;-60
2023/07/09 00:22:17;;;;;;;5.80;3.30;;;;;;;21.86;nan;61786.06;5035050;28;20762;-62
2023/07/09 00:24:50;;;;;;;5.60;3.13;;;;;;;21.74;nan;61977.91;5034943;28;20233;-58
2023/07/09 00:27:18;;;;;;;4.28;2.90;;;;;;;21.60;nan;61837.16;5034475;28;20676;-59
2023/07/09 00:29:44;;;;;;;4.25;2.55;;;;;;;21.65;nan;61876.63;5034962;28;20620;-60
2023/07/09 00:32:15;;;;;;;4.90;3.03;;;;;;;21.79;nan;61983.03;5034817;28;20221;-60
2023/07/09 00:34:55;;;;;;;4.00;3.03;;;;;;;21.54;nan;61799.16;5035293;28;20202;-60
2023/07/09 00:37:27;;;;;;;4.20;2.85;;;;;;;21.73;nan;61841.53;5034781;28;20187;-58
2023/07/09 00:39:52;;;;;;;5.32;3.08;;;;;;;21.71;nan;61859.47;5034707;28;20183;-58
2023/07/09 00:42:20;;;;;;;5.40;2.92;;;;;;;21.68;nan;61887.88;5034931;28;20572;-60
2023/07/09 00:44:51;;;;;;;4.28;2.92;;;;;;;21.40;nan;61850.84;5034430;28;20183;-57
2023/07/09 00:47:33;;;;;;;4.85;3.17;;;;;;;21.93;nan;61952.72;5034463;28;20175;-61
2023/07/09 00:50:05;;;;;;;4.03;2.92;;;;;;;21.51;nan;61826.94;5034078;28;20198;-59
2023/07/09 00:52:53;;;;;;;4.85;3.10;;;;;;;21.91;nan;61864.56;5034439;28;20164;-59
2023/07/09 00:55:24;;;;;;;4.85;3.28;;;;;;;21.51;nan;61837.31;5034910;28;20170;-59
2023/07/09 00:57:56;;;;;;;4.63;2.80;;;;;;;21.11;nan;61938.53;5034254;28;20167;-60
2023/07/09 01:00:45;;;;;;;3.03;2.65;;;;;;;21.94;nan;61901.81;5033770;28;20628;-61
2023/07/09 01:03:18;;;;;;;3.88;2.85;;;;;;;21.79;nan;61843.13;5033006;28;20254;-59
2023/07/09 01:05:45;;;;;;;4.03;3.00;;;;;;;21.90;nan;61868.06;5034451;28;20175;-62
2023/07/09 01:08:12;;;;;;;5.15;3.17;;;;;;;21.88;nan;61921.00;5033978;28;20176;-57
2023/07/09 01:10:40;;;;;;;4.32;3.00;;;;;;;22.02;nan;61929.13;5032584;28;20198;-59
2023/07/09 01:13:08;;;;;;;3.97;2.90;;;;;;;21.58;nan;61832.28;5033904;28;20668;-60
2023/07/09 01:15:37;;;;;;;4.45;2.55;;;;;;;21.92;nan;61878.69;5034067;28;20270;-59
2023/07/09 01:18:03;;;;;;;4.50;2.85;;;;;;;21.91;nan;61890.59;5034200;28;20596;-58
2023/07/09 01:20:29;;;;;;;3.55;2.60;;;;;;;21.88;nan;61873.59;5033684;28;20176;-59
2023/07/09 01:22:56;;;;;;;4.10;2.80;;;;;;;21.74;nan;61862.88;5033638;28;20171;-60
2023/07/09 01:25:23;;;;;;;5.90;3.03;;;;;;;21.80;nan;61901.50;5033707;28;20170;-59
2023/07/09 01:27:50;;;;;;;8.35;2.97;;;;;;;21.64;nan;61823.47;5033521;28;20175;-61
2023/07/09 01:30:28;;;;;;;3.67;2.70;;;;;;;21.59;nan;61872.44;5033765;28;20217;-59
2023/07/09 01:32:57;;;;;;;3.78;2.63;;;;;;;21.47;nan;61858.78;5033823;28;20281;-61
2023/07/09 01:35:23;;;;;;;4.32;3.08;;;;;;;21.49;nan;61825.25;5033271;28;20262;-62
2023/07/09 01:37:49;;;;;;;3.72;2.90;;;;;;;20.61;nan;61715.50;5033139;28;20171;-58
2023/07/09 01:40:20;;;;;;;4.93;3.00;;;;;;;21.21;nan;61964.97;5032943;28;20186;-59
2023/07/09 01:42:45;;;;;;;3.95;3.20;;;;;;;21.62;nan;61842.03;5031991;28;20229;-60
2023/07/09 01:45:12;;;;;;;4.80;2.80;;;;;;;21.42;nan;61832.88;5033206;28;20258;-60
2023/07/09 01:47:38;;;;;;;4.15;2.80;;;;;;;21.20;nan;61906.66;5033217;28;20608;-60
2023/07/09 01:50:09;;;;;;;3.53;2.80;;;;;;;21.40;nan;61858.63;5032922;28;20199;-59
2023/07/09 01:52:37;;;;;;;4.28;2.85;;;;;;;19.54;nan;63384.00;5032608;28;20183;-60
2023/07/09 01:55:03;;;;;;;3.45;2.70;;;;;;;21.07;nan;61762.50;5031781;28;20179;-61
2023/07/09 01:57:32;;;;;;;3.28;2.58;;;;;;;21.33;nan;61868.88;5033294;28;20163;-59
2023/07/09 02:00:00;;;;;;;4.90;3.10;;;;;;;21.40;nan;61785.84;5032927;28;20322;-61
2023/07/09 02:02:26;;;;;;;3.72;2.80;;;;;;;21.27;nan;62174.53;5032704;28;20682;-60
2023/07/09 02:04:55;;;;;;;3.75;2.85;;;;;;;21.05;nan;62082.41;5032710;28;20179;-61
2023/07/09 02:07:22;;;;;;;5.18;3.08;;;;;;;21.40;nan;61798.84;5032530;28;20656;-59
2023/07/09 02:09:48;;;;;;;3.63;2.90;;;;;;;21.32;nan;61883.91;5032726;28;20591;-60
2023/07/09 02:12:15;;;;;;;4.18;2.75;;;;;;;21.14;nan;61860.84;5032883;28;20175;-59
2023/07/09 02:14:41;;;;;;;4.10;2.95;;;;;;;21.32;nan;61868.31;5032672;28;20172;-59
2023/07/09 02:17:07;;;;;;;5.95;2.70;;;;;;;21.35;nan;61793.75;5032633;28;20218;-61
2023/07/09 02:19:33;;;;;;;3.03;2.55;;;;;;;21.43;nan;61901.03;5032784;28;20179;-60
2023/07/09 02:21:58;;;;;;;4.57;2.80;;;;;;;21.06;nan;61730.19;5032787;28;20174;-60
2023/07/09 02:24:25;;;;;;;3.28;2.67;;;;;;;21.34;nan;61818.59;5032770;28;20182;-59
2023/07/09 02:27:02;;;;;;;3.95;2.63;;;;;;;21.50;nan;61857.00;5032567;28;20176;-59
2023/07/09 02:29:28;;;;;;;5.18;3.17;;;;;;;21.41;nan;61805.19;5032554;28;20698;-60
2023/07/09 02:31:57;;;;;;;4.57;2.90;;;;;;;21.46;nan;61814.03;5032190;28;20210;-58
2023/07/09 02:34:25;;;;;;;4.55;2.70;;;;;;;21.41;nan;62122.34;5032227;28;20179;-59
2023/07/09 02:36:55;;;;;;;7.70;3.30;;;;;;;21.44;nan;61803.97;5032404;28;20174;-59
2023/07/09 02:39:22;;;;;;;5.07;3.13;;;;;;;21.50;nan;61836.22;5032122;28;20214;-58
2023/07/09 02:41:48;;;;;;;3.92;2.65;;;;;;;21.49;nan;61876.66;5032053;28;20353;-60
2023/07/09 02:44:14;;;;;;;4.97;3.10;;;;;;;21.52;nan;61817.66;5032413;28;20283;-60
2023/07/09 02:46:39;;;;;;;4.57;3.05;;;;;;;21.33;nan;61903.22;5031854;28;20362;-59
2023/07/09 02:49:06;;;;;;;5.97;3.33;;;;;;;21.25;nan;61875.38;5031865;28;20167;-62
2023/07/09 02:51:31;;;;;;;5.15;3.08;;;;;;;21.52;nan;61833.84;5032425;28;20293;-62
2023/07/09 02:54:01;;;;;;;7.03;3.38;;;;;;;21.47;nan;61799.56;5032325;28;20190;-61
2023/07/09 02:56:26;;;;;;;4.22;2.75;;;;;;;21.18;nan;61885.63;5032177;28;20176;-60
2023/07/09 02:58:52;;;;;;;4.82;3.30;;;;;;;21.43;nan;61826.22;5030754;28;20554;-61
2023/07/09 03:01:20;;;;;;;4.97;2.85;;;;;;;21.32;nan;62049.69;5031195;28;20266;-62
2023/07/09 03:03:45;;;;;;;4.28;2.97;;;;;;;21.56;nan;61825.38;5031664;28;20230;-61
2023/07/09 03:06:11;;;;;;;4.18;2.72;;;;;;;21.27;nan;61774.25;5031430;28;20214;-62
2023/07/09 03:08:36;;;;;;;4.63;2.75;;;;;;;21.51;nan;61791.09;5031689;28;20179;-59
2023/07/09 03:11:10;;;;;;;4.43;3.13;;;;;;;21.59;nan;61815.78;5031365;28;20210;-60
2023/07/09 03:13:36;;;;;;;4.47;3.08;;;;;;;22.22;nan;61899.25;5031209;28;20803;-60
2023/07/09 03:16:03;;;;;;;5.13;3.17;;;;;;;22.29;nan;62060.78;5030996;28;20188;-59
2023/07/09 03:18:28;;;;;;;4.35;2.90;;;;;;;22.57;nan;61951.47;5031699;28;20170;-57
2023/07/09 03:20:54;;;;;;;4.65;2.80;;;;;;;22.82;nan;61979.34;5031081;28;20230;-61
2023/07/09 03:23:19;;;;;;;4.38;2.60;;;;;;;23.44;nan;61997.19;5031531;28;20191;-60
2023/07/09 03:25:44;;;;;;;3.65;2.78;;;;;;;23.93;nan;62145.75;5032920;28;20202;-60
2023/07/09 03:28:11;;;;;;;7.35;2.90;;;;;;;21.98;nan;63733.53;5037946;28;20248;-60
2023/07/09 03:30:45;;;;;;;4.10;2.97;;;;;;;24.70;nan;62164.44;5037447;28;20583;-62
2023/07/09 03:33:12;;;;;;;4.38;2.92;;;;;;;25.82;nan;62366.94;5038249;28;20175;-60
2023/07/09 03:35:38;;;;;;;3.60;2.72;;;;;;;26.41;nan;62430.59;5038325;28;20642;-61
2023/07/09 03:38:04;;;;;;;4.00;2.78;;;;;;;27.34;nan;62565.22;5038226;28;20173;-59
2023/07/09 03:40:30;;;;;;;3.72;2.60;;;;;;;27.60;nan;62581.28;5038192;28;20190;-60
2023/07/09 03:42:56;;;;;;;3.28;2.60;;;;;;;27.76;nan;62754.56;5038089;28;20167;-59
2023/07/09 03:45:21;;;;;;;3.80;2.92;;;;;;;28.79;nan;62779.56;5038157;28;20171;-62
2023/07/09 03:47:46;;;;;;;3.60;2.80;;;;;;;29.32;nan;62986.69;5038023;28;20207;-59
2023/07/09 03:50:12;;;;;;;3.83;2.38;;;;;;;29.55;nan;62949.91;5038026;28;20227;-58
2023/07/09 03:52:37;;;;;;;4.22;2.75;;;;;;;29.96;nan;63043.38;5038048;28;20512;-57
2023/07/09 03:55:04;;;;;;;3.60;2.60;;;;;;;30.00;nan;63047.97;5038144;28;20638;-62
2023/07/09 03:57:32;;;;;;;4.47;2.33;;;;;;;29.91;nan;63001.28;5037943;28;20167;-58
2023/07/09 03:59:58;;;;;;;4.85;2.97;;;;;;;31.02;nan;63404.56;5038236;28;20272;-61
2023/07/09 04:02:24;;;;;;;3.05;2.35;;;;;;;31.87;nan;63284.81;5037854;28;20282;-59
2023/07/09 04:04:49;;;;;;;4.25;2.65;;;;;;;32.57;nan;63398.81;5038398;28;20179;-59
2023/07/09 04:07:15;;;;;;;3.13;2.45;;;;;;;33.22;nan;63489.81;5038075;28;20181;-61
2023/07/09 04:09:41;;;;;;;4.93;2.65;;;;;;;33.75;nan;63679.91;5038609;28;20642;-59
2023/07/09 04:12:08;;;;;;;5.80;2.63;;;;;;;33.25;nan;63628.44;5037820;28;20178;-61
2023/07/09 04:14:34;;;;;;;2.90;2.38;;;;;;;31.94;nan;63290.81;5037467;28;20687;-61
2023/07/09 04:16:59;;;;;;;4.03;2.67;;;;;;;31.83;nan;63294.00;5037617;28;20174;-60
2023/07/09 04:19:25;;;;;;;3.97;2.63;;;;;;;32.07;nan;63312.59;5038109;28;20724;-58
2023/07/09 04:21:50;;;;;;;4.85;2.30;;;;;;;32.19;nan;63424.34;5037668;28;20166;-61
2023/07/09 04:24:19;;;;;;;5.22;2.90;;;;;;;32.04;nan;63307.06;5037723;28;20555;-60
2023/07/09 04:26:46;;;;;;;4.75;2.70;;;;;;;31.67;nan;63253.84;5037637;28;20170;-62
2023/07/09 04:29:11;;;;;;;3.70;2.53;;;;;;;31.02;nan;63138.41;5037529;28;20642;-58
2023/07/09 04:31:37;;;;;;;5.28;2.80;;;;;;;30.29;nan;63023.28;5037837;28;20214;-62
2023/07/09 04:34:03;;;;;;;3.65;2.65;;;;;;;29.77;nan;62922.50;5037631;28;20689;-61
2023/07/09 04:36:29;;;;;;;3.60;2.63;;;;;;;29.59;nan;63017.78;5037422;28;20171;-62
2023/07/09 04:38:55;;;;;;;4.38;2.70;;;;;;;29.12;nan;62868.94;5033389;28;20183;-60
2023/07/09 04:41:20;;;;;;;4.20;2.95;;;;;;;29.87;nan;62924.94;5034080;28;20179;-59
2023/07/09 04:43:46;;;;;;;3.08;2.58;;;;;;;29.63;nan;62922.25;5034727;28;20210;-61
2023/07/09 04:46:11;;;;;;;2.97;2.30;;;;;;;29.50;nan;62890.94;5034703;28;20163;-61
2023/07/09 04:48:36;;;;;;;3.28;2.55;;;;;;;29.45;nan;62983.22;5034263;28;20243;-60
2023/07/09 04:51:02;;;;;;;3.63;2.58;;;;;;;29.52;nan;62978.09;5034339;28;20195;-59
2023/07/09 04:53:27;;;;;;;2.72;2.35;;;;;;;29.83;nan;63053.25;5034275;28;20171;-59
2023/07/09 04:55:52;;;;;;;4.82;3.17;;;;;;;29.31;nan;62954.53;5033926;28;20233;-58
2023/07/09 04:58:19;;;;;;;4.40;3.00;;;;;;;28.43;nan;62669.91;5034250;28;20630;-59
2023/07/09 05:00:45;;;;;;;3.90;2.47;;;;;;;28.19;nan;62716.03;5026313;28;20175;-61
2023/07/09 05:03:11;;;;;;;5.03;2.85;;;;;;;28.10;nan;62672.72;5029968;28;20238;-62
2023/07/09 05:05:42;;;;;;;3.53;2.58;;;;;;;27.90;nan;62780.56;5016166;28;20187;-62
2023/07/09 05:08:08;;;;;;;3.33;2.70;;;;;;;28.22;nan;62748.38;5014268;28;20597;-61
2023/07/09 05:10:33;;;;;;;5.35;3.00;;;;;;;28.73;nan;62851.63;5013489;28;20645;-61
2023/07/09 05:12:58;;;;;;;3.45;2.47;;;;;;;28.72;nan;62818.31;5014209;28;20187;-61
2023/07/09 05:15:24;;;;;;;4.03;3.00;;;;;;;28.85;nan;62822.72;5021842;28;20627;-58
2023/07/09 05:17:49;;;;;;;4.05;2.63;;;;;;;28.76;nan;62857.13;5022777;28;20197;-62
2023/07/09 05:20:15;;;;;;;3.50;2.58;;;;;;;27.87;nan;62948.50;5023093;28;20262;-58
2023/07/09 05:22:41;;;;;;;3.10;2.80;;;;;;;27.00;nan;62555.78;5024458;28;20535;-60
2023/07/09 05:25:07;;;;;;;3.67;2.63;;;;;;;27.31;nan;62569.09;5025112;28;20179;-59
2023/07/09 05:27:32;;;;;;;3.90;2.70;;;;;;;27.43;nan;62670.03;5034033;28;20265;-58
2023/07/09 05:29:58;;;;;;;3.88;2.83;;;;;;;27.48;nan;62604.88;5033680;28;20663;-59
2023/07/09 05:32:24;;;;;;;3.72;2.58;;;;;;;27.62;nan;62641.34;5033782;28;20171;-63
2023/07/09 05:34:49;;;;;;;4.40;2.78;;;;;;;27.83;nan;62954.41;5033621;28;20689;-60
2023/07/09 05:37:15;;;;;;;4.18;2.50;;;;;;;28.26;nan;62724.63;5033191;28;20172;-60
2023/07/09 05:39:40;;;;;;;4.30;2.72;;;;;;;28.85;nan;62802.25;5033297;28;20168;-62
2023/07/09 05:42:06;;;;;;;4.15;2.60;;;;;;;29.76;nan;62952.97;5033653;28;20610;-58
2023/07/09 05:44:31;;;;;;;3.17;2.55;;;;;;;28.28;nan;62715.84;5033591;28;20171;-61
2023/07/09 05:46:56;;;;;;;4.88;3.00;;;;;;;28.05;nan;63008.63;5033768;28;20233;-62
2023/07/09 05:49:22;;;;;;;4.40;2.75;;;;;;;26.95;nan;62623.50;5033113;28;20179;-60
2023/07/09 05:51:47;;;;;;;7.20;2.97;;;;;;;26.32;nan;62355.94;5033396;28;20635;-60
2023/07/09 05:54:13;;;;;;;4.68;2.58;;;;;;;26.56;nan;62773.41;5032967;28;20254;-62
2023/07/09 05:56:38;;;;;;;3.50;2.67;;;;;;;26.55;nan;62573.00;5033578;28;20202;-59
2023/07/09 05:59:04;;;;;;;3.42;2.63;;;;;;;26.00;nan;62500.13;5033096;28;20180;-61
2023/07/09 06:01:29;;;;;;;4.55;2.78;;;;;;;24.33;nan;62225.31;5032922;28;20628;-60
2023/07/09 06:03:56;;;;;;;4.15;2.75;;;;;;;26.24;nan;62433.28;5033334;28;20248;-60
2023/07/09 06:06:21;;;;;;;3.85;2.70;;;;;;;26.04;nan;62530.31;5032679;28;20633;-59
2023/07/09 06:08:47;;;;;;;3.10;2.42;;;;;;;26.13;nan;62410.19;5032538;28;20179;-62
2023/07/09 06:11:13;;;;;;;3.22;2.55;;;;;;;25.86;nan;62478.88;5032885;28;20226;-61
2023/07/09 06:13:39;;;;;;;3.28;2.47;;;;;;;26.05;nan;62330.34;5032858;28;20176;-61
2023/07/09 06:16:05;;;;;;;3.97;2.83;;;;;;;26.10;nan;62521.47;5032534;28;20155;-63
2023/07/09 06:18:30;;;;;;;3.58;2.67;;;;;;;26.10;nan;62417.25;5031515;28;20223;-63
2023/07/09 06:20:58;;;;;;;5.00;2.92;;;;;;;26.01;nan;62374.97;5032553;28;20424;-64
2023/07/09 06:23:25;;;;;;;3.92;2.38;;;;;;;26.11;nan;62533.09;5032170;28;20254;-60
2023/07/09 06:25:51;;;;;;;3.60;2.70;;;;;;;25.88;nan;62497.47;5030581;28;20179;-62
2023/07/09 06:28:22;;;;;;;3.17;2.28;;;;;;;26.10;nan;62409.41;5032157;28;20188;-62
2023/07/09 06:30:48;;;;;;;3.67;2.83;;;;;;;26.30;nan;62723.19;5031603;28;20207;-61
2023/07/09 06:33:15;;;;;;;3.50;2.80;;;;;;;26.29;nan;62462.00;4582852;28;20867;-62
2023/07/09 06:35:53;;;;;;;3.63;2.53;;;;;;;26.25;nan;62434.44;4903665;28;20179;-60
2023/07/09 06:38:18;;;;;;;4.57;2.53;;;;;;;26.41;nan;62490.88;5032035;28;20171;-63
2023/07/09 06:40:44;;;;;;;4.57;2.95;;;;;;;26.48;nan;62493.66;5031777;28;20202;-63
2023/07/09 06:43:10;;;;;;;4.35;2.72;;;;;;;26.57;nan;62640.84;5031410;28;20175;-62
2023/07/09 06:45:36;;;;;;;3.30;2.67;;;;;;;26.74;nan;62520.75;5031854;28;20236;-64
2023/07/09 06:48:01;;;;;;;4.15;3.10;;;;;;;26.54;nan;62514.19;5032086;28;20635;-60
2023/07/09 06:50:28;;;;;;;4.90;3.10;;;;;;;26.80;nan;62619.41;5031723;28;20207;-59
2023/07/09 06:52:54;;;;;;;7.07;3.60;;;;;;;26.84;nan;62542.69;5031307;28;20220;-63
2023/07/09 06:55:20;;;;;;;6.15;4.20;;;;;;;26.89;nan;62543.19;5031631;28;20261;-60
2023/07/09 06:57:45;;;;;;;13.90;6.78;;;;;;;26.71;nan;62562.47;5031850;28;20241;-63
2023/07/09 07:00:11;;;;;;;10.27;6.47;;;;;;;26.37;nan;62406.19;5031734;28;20176;-61
2023/07/09 07:02:37;;;;;;;12.57;6.60;;;;;;;26.63;nan;62505.56;5031372;28;20229;-61
2023/07/09 07:05:02;;;;;;;13.50;8.18;;;;;;;26.61;nan;62448.78;5031330;28;20175;-63
2023/07/09 07:07:28;;;;;;;13.48;8.55;;;;;;;26.90;nan;62512.84;5031678;28;20187;-65
2023/07/09 07:09:53;;;;;;;12.02;7.30;;;;;;;26.83;nan;62664.81;5031602;28;20218;-65
2023/07/09 07:12:28;;;;;;;13.02;5.78;;;;;;;26.87;nan;62640.00;5031666;28;20171;-58
2023/07/09 07:14:55;;;;;;;13.07;8.25;;;;;;;26.97;nan;62515.59;5031377;28;20175;-66
2023/07/09 07:17:22;;;;;;;8.63;4.50;;;;;;;27.37;nan;62692.03;5031696;28;20631;-62
2023/07/09 07:19:50;;;;;;;7.97;4.72;;;;;;;27.43;nan;62658.94;5029716;28;20241;-64
2023/07/09 07:22:15;;;;;;;11.13;5.75;;;;;;;27.58;nan;62668.88;5031604;28;20246;-60
2023/07/09 07:24:40;;;;;;;8.13;5.10;;;;;;;27.50;nan;62601.34;5031361;28;20262;-63
2023/07/09 07:27:08;;;;;;;5.53;3.55;;;;;;;26.88;nan;62513.19;5031551;28;20254;-58
2023/07/09 07:29:33;;;;;;;8.95;5.50;;;;;;;27.53;nan;62610.03;5031346;28;20175;-61
2023/07/09 07:32:00;;;;;;;6.32;3.38;;;;;;;27.35;nan;62725.91;5031194;28;20233;-59
2023/07/09 07:34:26;;;;;;;6.00;4.07;;;;;;;27.68;nan;62742.78;5031054;28;20261;-61
2023/07/09 07:36:51;;;;;;;9.68;5.25;;;;;;;27.75;nan;62724.53;5031394;28;20259;-61
2023/07/09 07:39:17;;;;;;;6.05;3.67;;;;;;;27.67;nan;62618.75;5031216;28;20183;-64
2023/07/09 07:41:42;;;;;;;7.20;4.80;;;;;;;28.09;nan;62713.00;5031163;28;20167;-61
2023/07/09 07:44:08;;;;;;;5.85;3.30;;;;;;;28.15;nan;62700.94;5031206;28;20171;-60
2023/07/09 07:46:34;;;;;;;5.20;3.47;;;;;;;27.98;nan;62619.50;5030975;28;20171;-60
2023/07/09 07:48:59;;;;;;;4.07;2.67;;;;;;;28.10;nan;62772.59;5031409;28;20658;-61
2023/07/09 07:51:25;;;;;;;4.68;3.00;;;;;;;28.28;nan;62721.09;5030899;28;20242;-62
2023/07/09 07:53:52;;;;;;;5.07;3.38;;;;;;;27.65;nan;62619.09;5031200;28;20191;-63
2023/07/09 07:56:18;;;;;;;6.65;3.40;;;;;;;27.85;nan;62649.31;5030879;28;20179;-62
2023/07/09 07:58:43;;;;;;;4.88;3.33;;;;;;;28.10;nan;62743.66;5031252;28;20226;-63
2023/07/09 08:01:09;;;;;;;4.65;3.15;;;;;;;;;;5029492;28;20194;-59
2023/07/09 08:03:34;;;;;;;5.47;3.03;;;;;;;28.23;nan;62833.66;5030986;28;20855;-61
2023/07/09 08:06:00;;;;;;;5.38;3.10;;;;;;;28.22;nan;62701.63;5031370;28;20170;-59
2023/07/09 08:08:25;;;;;;;5.45;3.50;;;;;;;28.55;nan;62771.03;5031079;28;20187;-62
2023/07/09 08:10:51;;;;;;;5.78;3.10;;;;;;;28.25;nan;62680.84;5030438;28;20675;-62
2023/07/09 08:13:17;;;;;;;3.92;2.80;;;;;;;28.32;nan;62667.84;5033924;28;20171;-58
2023/07/09 08:15:44;;;;;;;4.68;3.08;;;;;;;28.48;nan;62791.94;5034876;28;20171;-64
2023/07/09 08:18:10;;;;;;;5.15;3.10;;;;;;;28.49;nan;62764.13;5034481;28;20623;-63
2023/07/09 08:20:36;;;;;;;4.47;3.03;;;;;;;28.69;nan;62806.97;5034787;28;20167;-64
2023/07/09 08:23:02;;;;;;;4.43;3.08;;;;;;;28.68;nan;62782.16;5034477;28;20532;-63
2023/07/09 08:25:27;;;;;;;5.63;3.35;;;;;;;28.61;nan;62826.75;5034667;28;20170;-63
2023/07/09 08:27:52;;;;;;;4.32;2.67;;;;;;;28.54;nan;62761.41;5035108;28;20569;-63
2023/07/09 08:30:18;;;;;;;3.20;2.45;;;;;;;29.08;nan;62854.38;5034564;28;20187;-64
2023/07/09 08:32:43;;;;;;;4.80;3.00;;;;;;;29.15;nan;62840.78;5032505;28;20559;-62
2023/07/09 08:35:10;;;;;;;5.13;2.50;;;;;;;29.24;nan;62816.88;5034689;28;20167;-63
2023/07/09 08:37:35;;;;;;;3.72;2.70;;;;;;;29.36;nan;62875.44;5034710;28;20186;-60
2023/07/09 08:40:01;;;;;;;4.15;3.17;;;;;;;29.68;nan;62970.16;5034321;28;20594;-63
2023/07/09 08:42:39;;;;;;;5.03;3.03;;;;;;;29.46;nan;63010.69;5034198;28;20349;-59
2023/07/09 08:45:26;;;;;;;5.25;2.67;;;;;;;29.35;nan;62958.56;5034171;28;20163;-62
2023/07/09 08:48:03;;;;;;;3.03;2.22;;;;;;;29.72;nan;62955.72;5034299;28;20191;-60
2023/07/09 08:50:52;;;;;;;5.53;3.78;;;;;;;29.72;nan;62974.16;5034098;28;20286;-59
2023/07/09 08:53:41;;;;;;;3.97;2.97;;;;;;;29.35;nan;62932.81;5033397;28;20168;-61
2023/07/09 08:56:10;;;;;;;6.10;4.00;;;;;;;29.51;nan;62971.09;5033709;28;20222;-58
2023/07/09 08:58:37;;;;;;;5.45;3.72;;;;;;;29.48;nan;62941.88;5033960;28;20270;-60
2023/07/09 09:01:05;;;;;;;4.60;3.53;;;;;;;29.43;nan;62909.81;5033699;28;20229;-62
2023/07/09 09:03:39;;;;;;;8.30;4.07;;;;;;;29.60;nan;62918.19;5033426;28;20223;-61
2023/07/09 09:06:13;;;;;;;5.13;3.67;;;;;;;29.56;nan;62993.22;5033885;28;20163;-63
2023/07/09 09:08:51;;;;;;;5.63;4.00;;;;;;;29.65;nan;62979.28;5033977;28;20636;-61
2023/07/09 09:11:45;;;;;;;7.05;4.28;;;;;;;29.68;nan;62953.75;5033699;28;20234;-58
2023/07/09 09:14:39;;;;;;;6.28;3.72;;;;;;;29.62;nan;62954.75;5033403;28;20189;-62
2023/07/09 09:17:13;;;;;;;6.20;3.63;;;;;;;29.83;nan;63015.78;5029042;28;20252;-64
2023/07/09 09:19:54;;;;;;;5.22;3.00;;;;;;;29.61;nan;62933.09;5033739;28;20174;-58
2023/07/09 09:22:36;;;;;;;4.65;3.10;;;;;;;29.56;nan;63030.13;5034057;28;20534;-61
2023/07/09 09:25:28;;;;;;;8.10;4.18;;;;;;;29.55;nan;63031.03;5032989;28;20197;-62
2023/07/09 09:27:54;;;;;;;5.25;3.20;;;;;;;29.84;nan;62946.34;5033688;28;20181;-62
2023/07/09 09:30:23;;;;;;;5.03;3.30;;;;;;;29.99;nan;63102.19;5033031;28;20644;-60
2023/07/09 09:32:54;;;;;;;4.88;3.50;;;;;;;30.23;nan;63005.84;5032618;28;20179;-60
2023/07/09 09:35:26;;;;;;;5.50;3.58;;;;;;;30.20;nan;63050.44;5032764;28;20568;-62
2023/07/09 09:37:57;;;;;;;4.97;3.08;;;;;;;30.26;nan;63073.19;5033500;28;20174;-60
2023/07/09 09:40:24;;;;;;;4.93;2.90;;;;;;;30.32;nan;63102.66;5033286;28;20258;-63
2023/07/09 09:42:51;;;;;;;5.10;2.97;;;;;;;30.36;nan;63125.75;5033268;28;20262;-63
2023/07/09 09:45:20;;;;;;;3.95;2.92;;;;;;;30.20;nan;63097.34;5031956;28;20265;-62
2023/07/09 09:47:47;;;;;;;6.15;3.67;;;;;;;30.11;nan;63018.41;5033065;28;20224;-65
2023/07/09 09:50:20;;;;;;;4.15;2.70;;;;;;;30.23;nan;63119.28;5033166;28;20198;-66
2023/07/09 09:52:48;;;;;;;4.25;2.60;;;;;;;30.33;nan;63009.44;5032694;28;20231;-63
2023/07/09 09:55:22;;;;;;;6.25;3.83;;;;;;;30.38;nan;63123.31;5031550;28;20694;-58
2023/07/09 09:57:53;;;;;;;3.40;2.72;;;;;;;30.22;nan;63303.31;5032755;28;20174;-61
2023/07/09 10:00:22;;;;;;;3.35;2.67;;;;;;;30.49;nan;63312.25;5033285;28;20174;-64
2023/07/09 10:02:48;;;;;;;5.20;2.92;;;;;;;30.26;nan;63027.75;5032681;28;20222;-60
2023/07/09 10:05:15;;;;;;;4.00;2.78;;;;;;;30.38;nan;63149.16;5032791;28;20561;-61
2023/07/09 10:08:06;;;;;;;6.28;2.97;;;;;;;30.30;nan;63021.81;5032658;28;20179;-59
2023/07/09 10:10:33;;;;;;;4.15;3.00;;;;;;;30.55;nan;63084.31;5032177;28;20855;-61
2023/07/09 10:13:22;;;;;;;5.00;3.38;;;;;;;30.59;nan;63057.81;5031950;28;20199;-63
2023/07/09 10:16:09;;;;;;;3.20;2.72;;;;;;;30.96;nan;63212.75;5030299;28;20167;-63
2023/07/09 10:18:46;;;;;;;4.40;2.75;;;;;;;30.96;nan;63183.72;5030825;28;20649;-63
2023/07/09 10:21:36;;;;;;;7.32;2.47;;;;;;;28.81;nan;62800.28;5029277;28;20178;-64
2023/07/09 10:24:33;;;;;;;3.45;2.35;;;;;;;30.77;nan;63307.03;5030907;28;20159;-60
2023/07/09 10:27:22;;;;;;;3.90;2.72;;;;;;;30.81;nan;63148.53;5030257;28;20183;-61
2023/07/09 10:30:26;;;;;;;3.38;2.60;;;;;;;30.99;nan;63115.84;5032626;28;20589;-60
2023/07/09 10:32:57;;;;;;;2.95;2.20;;;;;;;30.99;nan;63197.72;5015392;28;20189;-64
2023/07/09 10:35:47;;;;;;;4.75;3.10;;;;;;;31.01;nan;63131.97;5031090;28;20185;-63
2023/07/09 10:38:33;;;;;;;2.80;2.25;;;;;;;30.92;nan;63121.03;5032497;28;20167;-65
2023/07/09 10:41:00;;;;;;;3.53;2.55;;;;;;;30.99;nan;63393.72;5030914;28;20206;-62
2023/07/09 10:43:37;;;;;;;5.28;3.08;;;;;;;30.92;nan;63097.25;5031882;28;20167;-61
2023/07/09 10:46:11;;;;;;;3.90;2.70;;;;;;;30.91;nan;63214.91;5030295;28;20229;-58
2023/07/09 10:48:58;;;;;;;5.10;2.70;;;;;;;30.89;nan;63192.06;5032195;28;20167;-62
2023/07/09 10:51:29;;;;;;;3.72;2.45;;;;;;;31.02;nan;63119.94;5031707;28;20226;-61
2023/07/09 10:54:00;;;;;;;4.85;2.70;;;;;;;31.16;nan;63220.00;5032204;28;20166;-63
2023/07/09 10:56:31;;;;;;;3.75;2.65;;;;;;;30.90;nan;63432.94;5031415;28;20555;-59
2023/07/09 10:59:14;;;;;;;3.88;2.60;;;;;;;31.03;nan;63228.75;5032343;28;20182;-64
2023/07/09 11:01:47;;;;;;;3.70;2.67;;;;;;;30.91;nan;63226.06;5032014;28;20177;-65
2023/07/09 11:04:36;;;;;;;3.95;2.45;;;;;;;30.92;nan;63073.50;5032107;28;20670;-63
2023/07/09 11:07:07;;;;;;;4.05;2.80;;;;;;;30.85;nan;63057.50;5031834;28;20170;-60
2023/07/09 11:09:41;;;;;;;3.60;2.40;;;;;;;30.78;nan;63067.94;5031937;28;20175;-60
2023/07/09 11:12:29;;;;;;;3.70;2.80;;;;;;;31.33;nan;63205.22;5031827;28;20166;-61
2023/07/09 11:14:59;;;;;;;4.45;2.72;;;;;;;31.37;nan;63288.53;5031721;28;20225;-63
2023/07/09 11:17:27;;;;;;;3.22;2.45;;;;;;;31.51;nan;63215.38;5031968;28;20163;-59
2023/07/09 11:19:59;;;;;;;3.55;2.50;;;;;;;31.17;nan;63392.28;5031876;28;20597;-61
2023/07/09 11:22:28;;;;;;;4.22;2.75;;;;;;;30.96;nan;63097.16;5031403;28;20268;-61
2023/07/09 11:25:12;;;;;;;5.50;2.70;;;;;;;31.07;nan;63069.63;5031743;28;20193;-62
2023/07/09 11:27:56;;;;;;;3.30;2.17;;;;;;;31.21;nan;63429.16;5030275;28;20619;-61
2023/07/09 11:30:27;;;;;;;3.78;2.40;;;;;;;31.19;nan;63432.13;5031532;28;20194;-62
2023/07/09 11:32:58;;;;;;;3.08;2.40;;;;;;;30.91;nan;63045.94;5031782;28;20261;-62
2023/07/09 11:35:29;;;;;;;3.60;2.35;;;;;;;31.37;nan;63186.03;5031410;28;20606;-61
2023/07/09 11:37:58;;;;;;;3.42;2.50;;;;;;;31.37;nan;63206.59;5031452;28;20171;-58
2023/07/09 11:40:24;;;;;;;4.07;2.50;;;;;;;31.56;nan;63252.31;5031710;28;20167;-59
2023/07/09 11:42:58;;;;;;;3.30;2.40;;;;;;;31.52;nan;63356.63;5031485;28;20653;-59
2023/07/09 11:45:31;;;;;;;3.60;2.70;;;;;;;31.45;nan;63189.38;5031403;28;20176;-66
2023/07/09 11:48:26;;;;;;;3.83;2.35;;;;;;;31.42;nan;63302.22;5034043;28;20565;-63
2023/07/09 11:50:54;;;;;;;2.78;2.20;;;;;;;31.32;nan;63192.91;5035309;28;20769;-57
2023/07/09 11:53:37;;;;;;;3.60;2.20;;;;;;;31.54;nan;63239.97;5035285;28;20179;-65
2023/07/09 11:56:04;;;;;;;4.10;2.60;;;;;;;31.30;nan;63159.50;5035373;28;20175;-62
2023/07/09 11:58:29;;;;;;;2.90;2.20;;;;;;;31.42;nan;63191.22;5034919;28;20159;-59
2023/07/09 12:00:57;;;;;;;3.22;2.33;;;;;;;31.59;nan;63290.13;5035062;28;20721;-63